Terminal Aerodrome Forecast
Issued by NWS

Current Version | Previous Version | Text Only | Print | Product List | Glossary On
Versions: 1 2 3 4 5 6 7 8 9 10 11 12 13
000
FTUS46 KEKA 290500
TAFUKI
TAF
KUKI 290524Z 2906/3006 00000KT P6SM FEW250
     FM292100 32012KT P6SM SCT250
     FM300200 35006KT P6SM SCT250
     FM300400 00000KT P6SM FEW250=

USA.gov is the U.S. government's official web portal to all federal, state and local government web resources and services.